sensor_id;sensor_type;location;lat;lon;timestamp;temperature;humidity
46085;DHT22;31823;47.032;8.310;2023-07-16T00:00:50;21.30;99.90
46085;DHT22;31823;47.032;8.310;2023-07-16T00:03:16;21.20;99.90
46085;DHT22;31823;47.032;8.310;2023-07-16T00:05:41;20.70;99.90
46085;DHT22;31823;47.032;8.310;2023-07-16T00:08:07;20.50;99.90
46085;DHT22;31823;47.032;8.310;2023-07-16T00:10:36;20.20;99.90
46085;DHT22;31823;47.032;8.310;2023-07-16T00:13:05;20.20;99.90
46085;DHT22;31823;47.032;8.310;2023-07-16T00:15:31;20.00;99.90
46085;DHT22;31823;47.032;8.310;2023-07-16T00:17:56;19.70;99.90
46085;DHT22;31823;47.032;8.310;2023-07-16T00:20:22;19.70;99.90
46085;DHT22;31823;47.032;8.310;2023-07-16T00:22:49;19.80;99.90
46085;DHT22;31823;47.032;8.310;2023-07-16T00:25:15;19.80;99.90
46085;DHT22;31823;47.032;8.310;2023-07-16T00:27:41;19.70;99.90
46085;DHT22;31823;47.032;8.310;2023-07-16T00:30:07;19.60;99.90
46085;DHT22;31823;47.032;8.310;2023-07-16T00:32:34;19.60;99.90
46085;DHT22;31823;47.032;8.310;2023-07-16T00:35:00;19.40;99.90
46085;DHT22;31823;47.032;8.310;2023-07-16T00:37:26;19.10;99.90
46085;DHT22;31823;47.032;8.310;2023-07-16T00:39:51;19.40;99.90
46085;DHT22;31823;47.032;8.310;2023-07-16T00:42:17;19.20;99.90
46085;DHT22;31823;47.032;8.310;2023-07-16T00:44:42;19.00;99.90
46085;DHT22;31823;47.032;8.310;2023-07-16T00:47:10;18.90;99.90
46085;DHT22;31823;47.032;8.310;2023-07-16T00:49:37;18.80;99.90
46085;DHT22;31823;47.032;8.310;2023-07-16T00:52:05;18.70;99.90
46085;DHT22;31823;47.032;8.310;2023-07-16T00:54:33;18.80;99.90
46085;DHT22;31823;47.032;8.310;2023-07-16T00:56:59;18.50;99.90
46085;DHT22;31823;47.032;8.310;2023-07-16T00:59:24;18.50;99.90
46085;DHT22;31823;47.032;8.310;2023-07-16T01:01:50;18.50;99.90
46085;DHT22;31823;47.032;8.310;2023-07-16T01:04:16;18.60;99.90
46085;DHT22;31823;47.032;8.310;2023-07-16T01:06:45;18.80;99.90
46085;DHT22;31823;47.032;8.310;2023-07-16T01:09:19;18.70;99.90
46085;DHT22;31823;47.032;8.310;2023-07-16T01:11:46;18.70;99.90
46085;DHT22;31823;47.032;8.310;2023-07-16T01:14:18;18.90;99.90
46085;DHT22;31823;47.032;8.310;2023-07-16T01:16:44;18.80;99.90
46085;DHT22;31823;47.032;8.310;2023-07-16T01:19:10;18.60;99.90
46085;DHT22;31823;47.032;8.310;2023-07-16T01:21:48;18.70;99.90
46085;DHT22;31823;47.032;8.310;2023-07-16T01:24:50;18.70;99.90
46085;DHT22;31823;47.032;8.310;2023-07-16T01:30:11;18.50;99.90
46085;DHT22;31823;47.032;8.310;2023-07-16T01:32:41;18.30;99.90
46085;DHT22;31823;47.032;8.310;2023-07-16T01:35:08;18.40;99.90
46085;DHT22;31823;47.032;8.310;2023-07-16T01:37:34;18.40;99.90
46085;DHT22;31823;47.032;8.310;2023-07-16T01:40:00;18.40;99.90
46085;DHT22;31823;47.032;8.310;2023-07-16T01:42:26;18.30;99.90
46085;DHT22;31823;47.032;8.310;2023-07-16T01:44:51;18.20;99.90
46085;DHT22;31823;47.032;8.310;2023-07-16T01:47:30;18.20;99.90
46085;DHT22;31823;47.032;8.310;2023-07-16T01:49:59;18.00;99.90
46085;DHT22;31823;47.032;8.310;2023-07-16T01:52:25;18.10;99.90
46085;DHT22;31823;47.032;8.310;2023-07-16T01:54:50;18.10;99.90
46085;DHT22;31823;47.032;8.310;2023-07-16T01:57:16;18.20;99.90
46085;DHT22;31823;47.032;8.310;2023-07-16T01:59:42;18.30;99.90
46085;DHT22;31823;47.032;8.310;2023-07-16T02:02:07;18.30;99.90
46085;DHT22;31823;47.032;8.310;2023-07-16T02:04:33;18.30;99.90
46085;DHT22;31823;47.032;8.310;2023-07-16T02:06:58;18.10;99.90
46085;DHT22;31823;47.032;8.310;2023-07-16T02:09:25;18.10;99.90
46085;DHT22;31823;47.032;8.310;2023-07-16T02:11:51;18.00;99.90
46085;DHT22;31823;47.032;8.310;2023-07-16T02:14:16;18.10;99.90
46085;DHT22;31823;47.032;8.310;2023-07-16T02:16:42;18.20;99.90
46085;DHT22;31823;47.032;8.310;2023-07-16T02:19:08;17.70;99.90
46085;DHT22;31823;47.032;8.310;2023-07-16T02:21:33;17.80;99.90
46085;DHT22;31823;47.032;8.310;2023-07-16T02:23:59;18.00;99.90
46085;DHT22;31823;47.032;8.310;2023-07-16T02:26:24;18.00;99.90
46085;DHT22;31823;47.032;8.310;2023-07-16T02:28:50;17.70;99.90
46085;DHT22;31823;47.032;8.310;2023-07-16T02:31:16;17.80;99.90
46085;DHT22;31823;47.032;8.310;2023-07-16T02:33:41;18.00;99.90
46085;DHT22;31823;47.032;8.310;2023-07-16T02:36:07;17.80;99.90
46085;DHT22;31823;47.032;8.310;2023-07-16T02:38:32;17.90;99.90
46085;DHT22;31823;47.032;8.310;2023-07-16T02:40:58;17.80;99.90
46085;DHT22;31823;47.032;8.310;2023-07-16T02:43:24;17.90;99.90
46085;DHT22;31823;47.032;8.310;2023-07-16T02:45:49;18.00;99.90
46085;DHT22;31823;47.032;8.310;2023-07-16T02:48:15;18.00;99.90
46085;DHT22;31823;47.032;8.310;2023-07-16T02:50:40;18.10;99.90
46085;DHT22;31823;47.032;8.310;2023-07-16T02:53:07;17.70;99.90
46085;DHT22;31823;47.032;8.310;2023-07-16T02:55:33;17.70;99.90
46085;DHT22;31823;47.032;8.310;2023-07-16T02:57:59;17.90;99.90
46085;DHT22;31823;47.032;8.310;2023-07-16T03:00:32;18.00;99.90
46085;DHT22;31823;47.032;8.310;2023-07-16T03:02:58;18.00;99.90
46085;DHT22;31823;47.032;8.310;2023-07-16T03:05:25;18.10;99.90
46085;DHT22;31823;47.032;8.310;2023-07-16T03:07:50;18.00;99.90
46085;DHT22;31823;47.032;8.310;2023-07-16T03:10:16;18.10;99.90
46085;DHT22;31823;47.032;8.310;2023-07-16T03:12:42;17.80;99.90
46085;DHT22;31823;47.032;8.310;2023-07-16T03:15:08;17.80;99.90
46085;DHT22;31823;47.032;8.310;2023-07-16T03:17:33;17.90;99.90
46085;DHT22;31823;47.032;8.310;2023-07-16T03:19:59;18.00;99.90
46085;DHT22;31823;47.032;8.310;2023-07-16T03:22:25;17.90;99.90
46085;DHT22;31823;47.032;8.310;2023-07-16T03:24:50;17.60;99.90
46085;DHT22;31823;47.032;8.310;2023-07-16T03:27:16;17.90;99.90
46085;DHT22;31823;47.032;8.310;2023-07-16T03:29:41;18.00;99.90
46085;DHT22;31823;47.032;8.310;2023-07-16T03:32:07;18.10;99.90
46085;DHT22;31823;47.032;8.310;2023-07-16T03:34:34;17.90;99.90
46085;DHT22;31823;47.032;8.310;2023-07-16T03:36:59;17.90;99.90
46085;DHT22;31823;47.032;8.310;2023-07-16T03:39:25;17.90;99.90
46085;DHT22;31823;47.032;8.310;2023-07-16T03:41:51;17.80;99.90
46085;DHT22;31823;47.032;8.310;2023-07-16T03:44:16;17.70;99.90
46085;DHT22;31823;47.032;8.310;2023-07-16T03:46:42;17.50;99.90
46085;DHT22;31823;47.032;8.310;2023-07-16T03:49:07;17.40;99.90
46085;DHT22;31823;47.032;8.310;2023-07-16T03:51:34;17.50;99.90
46085;DHT22;31823;47.032;8.310;2023-07-16T03:53:59;17.50;99.90
46085;DHT22;31823;47.032;8.310;2023-07-16T03:56:25;17.80;99.90
46085;DHT22;31823;47.032;8.310;2023-07-16T03:58:50;17.80;99.90
46085;DHT22;31823;47.032;8.310;2023-07-16T04:01:16;17.70;99.90
46085;DHT22;31823;47.032;8.310;2023-07-16T04:03:42;17.60;99.90
46085;DHT22;31823;47.032;8.310;2023-07-16T04:06:08;17.30;99.90
46085;DHT22;31823;47.032;8.310;2023-07-16T04:08:35;17.50;99.90
46085;DHT22;31823;47.032;8.310;2023-07-16T04:11:04;17.30;99.90
46085;DHT22;31823;47.032;8.310;2023-07-16T04:13:31;17.20;99.90
46085;DHT22;31823;47.032;8.310;2023-07-16T04:15:59;17.30;99.90
46085;DHT22;31823;47.032;8.310;2023-07-16T04:18:25;17.50;99.90
46085;DHT22;31823;47.032;8.310;2023-07-16T04:20:51;17.50;99.90
46085;DHT22;31823;47.032;8.310;2023-07-16T04:23:17;17.70;99.90
46085;DHT22;31823;47.032;8.310;2023-07-16T04:25:42;17.70;99.90
46085;DHT22;31823;47.032;8.310;2023-07-16T04:28:09;17.60;99.90
46085;DHT22;31823;47.032;8.310;2023-07-16T04:30:34;17.60;99.90
46085;DHT22;31823;47.032;8.310;2023-07-16T04:33:00;17.80;99.90
46085;DHT22;31823;47.032;8.310;2023-07-16T04:35:26;17.80;99.90
46085;DHT22;31823;47.032;8.310;2023-07-16T04:37:51;17.50;99.90
46085;DHT22;31823;47.032;8.310;2023-07-16T04:40:17;17.50;99.90
46085;DHT22;31823;47.032;8.310;2023-07-16T04:42:42;17.40;99.90
46085;DHT22;31823;47.032;8.310;2023-07-16T04:45:08;17.60;99.90
46085;DHT22;31823;47.032;8.310;2023-07-16T04:47:33;17.60;99.90
46085;DHT22;31823;47.032;8.310;2023-07-16T04:49:59;17.70;99.90
46085;DHT22;31823;47.032;8.310;2023-07-16T04:52:25;17.70;99.90
46085;DHT22;31823;47.032;8.310;2023-07-16T04:54:50;17.60;99.90
46085;DHT22;31823;47.032;8.310;2023-07-16T04:57:16;17.30;99.90
46085;DHT22;31823;47.032;8.310;2023-07-16T04:59:42;17.60;99.90
46085;DHT22;31823;47.032;8.310;2023-07-16T05:02:07;17.80;99.90
46085;DHT22;31823;47.032;8.310;2023-07-16T05:04:34;17.80;99.90
46085;DHT22;31823;47.032;8.310;2023-07-16T05:07:01;17.70;99.90
46085;DHT22;31823;47.032;8.310;2023-07-16T05:09:27;17.70;99.90
46085;DHT22;31823;47.032;8.310;2023-07-16T05:11:53;17.60;99.90
46085;DHT22;31823;47.032;8.310;2023-07-16T05:14:18;17.80;99.90
46085;DHT22;31823;47.032;8.310;2023-07-16T05:16:44;17.50;99.90
46085;DHT22;31823;47.032;8.310;2023-07-16T05:19:10;17.70;99.90
46085;DHT22;31823;47.032;8.310;2023-07-16T05:21:35;17.80;99.90
46085;DHT22;31823;47.032;8.310;2023-07-16T05:24:01;17.80;99.90
46085;DHT22;31823;47.032;8.310;2023-07-16T05:26:26;17.70;99.90
46085;DHT22;31823;47.032;8.310;2023-07-16T05:28:52;17.50;99.90
46085;DHT22;31823;47.032;8.310;2023-07-16T05:31:18;17.80;99.90
46085;DHT22;31823;47.032;8.310;2023-07-16T05:33:43;18.00;99.90
46085;DHT22;31823;47.032;8.310;2023-07-16T05:36:09;18.20;99.90
46085;DHT22;31823;47.032;8.310;2023-07-16T05:38:34;18.20;99.90
46085;DHT22;31823;47.032;8.310;2023-07-16T05:41:03;17.90;99.90
46085;DHT22;31823;47.032;8.310;2023-07-16T05:43:30;18.10;99.90
46085;DHT22;31823;47.032;8.310;2023-07-16T05:45:56;18.00;99.90
46085;DHT22;31823;47.032;8.310;2023-07-16T05:48:22;18.10;99.90
46085;DHT22;31823;47.032;8.310;2023-07-16T05:50:47;18.20;99.90
46085;DHT22;31823;47.032;8.310;2023-07-16T05:53:13;18.20;99.90
46085;DHT22;31823;47.032;8.310;2023-07-16T05:55:41;18.30;99.90
46085;DHT22;31823;47.032;8.310;2023-07-16T05:58:07;18.30;99.90
46085;DHT22;31823;47.032;8.310;2023-07-16T06:00:32;18.50;99.90
46085;DHT22;31823;47.032;8.310;2023-07-16T06:02:58;18.40;99.90
46085;DHT22;31823;47.032;8.310;2023-07-16T06:05:24;18.50;99.90
46085;DHT22;31823;47.032;8.310;2023-07-16T06:07:52;18.50;99.90
46085;DHT22;31823;47.032;8.310;2023-07-16T06:10:18;18.50;99.90
46085;DHT22;31823;47.032;8.310;2023-07-16T06:12:44;18.50;99.90
46085;DHT22;31823;47.032;8.310;2023-07-16T06:15:10;18.20;99.90
46085;DHT22;31823;47.032;8.310;2023-07-16T06:17:35;18.30;99.90
46085;DHT22;31823;47.032;8.310;2023-07-16T06:20:02;18.40;99.90
46085;DHT22;31823;47.032;8.310;2023-07-16T06:22:28;18.60;99.90
46085;DHT22;31823;47.032;8.310;2023-07-16T06:24:54;18.50;99.90
46085;DHT22;31823;47.032;8.310;2023-07-16T06:27:19;18.30;99.90
46085;DHT22;31823;47.032;8.310;2023-07-16T06:29:45;18.50;99.90
46085;DHT22;31823;47.032;8.310;2023-07-16T06:32:10;18.80;99.90
46085;DHT22;31823;47.032;8.310;2023-07-16T06:34:36;19.10;99.90
46085;DHT22;31823;47.032;8.310;2023-07-16T06:37:01;19.00;99.90
46085;DHT22;31823;47.032;8.310;2023-07-16T06:39:27;18.90;99.90
46085;DHT22;31823;47.032;8.310;2023-07-16T06:41:53;18.80;99.90
46085;DHT22;31823;47.032;8.310;2023-07-16T06:44:18;18.90;99.90
46085;DHT22;31823;47.032;8.310;2023-07-16T06:46:44;18.80;99.90
46085;DHT22;31823;47.032;8.310;2023-07-16T06:49:09;18.80;99.90
46085;DHT22;31823;47.032;8.310;2023-07-16T06:51:35;18.70;99.90
46085;DHT22;31823;47.032;8.310;2023-07-16T06:54:00;18.90;99.90
46085;DHT22;31823;47.032;8.310;2023-07-16T06:56:26;18.80;99.90
46085;DHT22;31823;47.032;8.310;2023-07-16T06:58:52;19.10;99.90
46085;DHT22;31823;47.032;8.310;2023-07-16T07:01:17;19.10;99.90
46085;DHT22;31823;47.032;8.310;2023-07-16T07:03:43;19.20;99.90
46085;DHT22;31823;47.032;8.310;2023-07-16T07:06:08;19.10;99.90
46085;DHT22;31823;47.032;8.310;2023-07-16T07:08:36;19.00;99.90
46085;DHT22;31823;47.032;8.310;2023-07-16T07:11:02;19.10;99.90
46085;DHT22;31823;47.032;8.310;2023-07-16T07:13:27;19.00;99.90
46085;DHT22;31823;47.032;8.310;2023-07-16T07:15:55;18.90;99.90
46085;DHT22;31823;47.032;8.310;2023-07-16T07:18:20;18.90;99.90
46085;DHT22;31823;47.032;8.310;2023-07-16T07:20:46;19.10;99.90
46085;DHT22;31823;47.032;8.310;2023-07-16T07:23:13;19.30;99.90
46085;DHT22;31823;47.032;8.310;2023-07-16T07:25:39;19.30;99.90
46085;DHT22;31823;47.032;8.310;2023-07-16T07:28:04;19.00;99.90
46085;DHT22;31823;47.032;8.310;2023-07-16T07:30:30;19.00;99.90
46085;DHT22;31823;47.032;8.310;2023-07-16T07:32:56;19.30;99.90
46085;DHT22;31823;47.032;8.310;2023-07-16T07:35:21;19.20;99.90
46085;DHT22;31823;47.032;8.310;2023-07-16T07:37:47;19.30;99.90
46085;DHT22;31823;47.032;8.310;2023-07-16T07:40:12;19.20;99.90
46085;DHT22;31823;47.032;8.310;2023-07-16T07:42:38;19.00;99.90
46085;DHT22;31823;47.032;8.310;2023-07-16T07:45:05;19.00;99.90
46085;DHT22;31823;47.032;8.310;2023-07-16T07:47:30;19.10;99.90
46085;DHT22;31823;47.032;8.310;2023-07-16T07:49:56;19.10;99.90
46085;DHT22;31823;47.032;8.310;2023-07-16T07:52:21;19.00;99.90
46085;DHT22;31823;47.032;8.310;2023-07-16T07:54:47;18.90;99.90
46085;DHT22;31823;47.032;8.310;2023-07-16T07:57:14;19.20;99.90
46085;DHT22;31823;47.032;8.310;2023-07-16T07:59:39;19.40;99.90
46085;DHT22;31823;47.032;8.310;2023-07-16T08:02:05;19.20;99.90
46085;DHT22;31823;47.032;8.310;2023-07-16T08:04:31;19.30;99.90
46085;DHT22;31823;47.032;8.310;2023-07-16T08:06:57;19.40;99.90
46085;DHT22;31823;47.032;8.310;2023-07-16T08:09:25;19.20;99.90
46085;DHT22;31823;47.032;8.310;2023-07-16T08:11:50;19.30;99.90
46085;DHT22;31823;47.032;8.310;2023-07-16T08:14:16;19.00;99.90
46085;DHT22;31823;47.032;8.310;2023-07-16T08:16:42;19.00;99.90
46085;DHT22;31823;47.032;8.310;2023-07-16T08:19:07;19.40;99.90
46085;DHT22;31823;47.032;8.310;2023-07-16T08:21:33;19.80;99.90
46085;DHT22;31823;47.032;8.310;2023-07-16T08:23:59;20.00;99.90
46085;DHT22;31823;47.032;8.310;2023-07-16T08:26:24;20.00;99.90
46085;DHT22;31823;47.032;8.310;2023-07-16T08:28:50;19.90;99.90
46085;DHT22;31823;47.032;8.310;2023-07-16T08:31:15;19.80;99.90
46085;DHT22;31823;47.032;8.310;2023-07-16T08:33:41;20.20;99.90
46085;DHT22;31823;47.032;8.310;2023-07-16T08:36:07;20.30;99.90
46085;DHT22;31823;47.032;8.310;2023-07-16T08:38:32;20.00;99.90
46085;DHT22;31823;47.032;8.310;2023-07-16T08:41:00;19.60;99.90
46085;DHT22;31823;47.032;8.310;2023-07-16T08:43:26;19.40;99.90
46085;DHT22;31823;47.032;8.310;2023-07-16T08:45:51;19.50;99.90
46085;DHT22;31823;47.032;8.310;2023-07-16T08:48:17;19.60;99.90
46085;DHT22;31823;47.032;8.310;2023-07-16T08:50:47;19.60;99.90
46085;DHT22;31823;47.032;8.310;2023-07-16T08:53:15;20.20;99.90
46085;DHT22;31823;47.032;8.310;2023-07-16T08:55:43;20.00;99.90
46085;DHT22;31823;47.032;8.310;2023-07-16T08:58:10;20.40;99.90
46085;DHT22;31823;47.032;8.310;2023-07-16T09:00:36;20.20;99.90
46085;DHT22;31823;47.032;8.310;2023-07-16T09:03:03;20.30;99.90
46085;DHT22;31823;47.032;8.310;2023-07-16T09:05:29;20.30;99.90
46085;DHT22;31823;47.032;8.310;2023-07-16T09:07:55;20.20;99.90
46085;DHT22;31823;47.032;8.310;2023-07-16T09:10:20;20.40;99.90
46085;DHT22;31823;47.032;8.310;2023-07-16T09:12:47;20.30;99.90
46085;DHT22;31823;47.032;8.310;2023-07-16T09:15:17;20.40;99.90
46085;DHT22;31823;47.032;8.310;2023-07-16T09:18:03;20.20;99.90
46085;DHT22;31823;47.032;8.310;2023-07-16T09:20:29;20.50;99.90
46085;DHT22;31823;47.032;8.310;2023-07-16T09:22:56;20.90;99.90
46085;DHT22;31823;47.032;8.310;2023-07-16T09:25:29;20.50;99.90
46085;DHT22;31823;47.032;8.310;2023-07-16T09:27:55;20.50;99.90
46085;DHT22;31823;47.032;8.310;2023-07-16T09:30:20;20.30;99.90
46085;DHT22;31823;47.032;8.310;2023-07-16T09:32:46;20.70;99.90
46085;DHT22;31823;47.032;8.310;2023-07-16T09:35:13;20.30;99.90
46085;DHT22;31823;47.032;8.310;2023-07-16T09:37:41;20.30;99.90
46085;DHT22;31823;47.032;8.310;2023-07-16T09:40:08;20.50;99.90
46085;DHT22;31823;47.032;8.310;2023-07-16T09:42:41;20.20;99.90
46085;DHT22;31823;47.032;8.310;2023-07-16T09:45:17;20.20;99.90
46085;DHT22;31823;47.032;8.310;2023-07-16T09:47:43;20.30;99.90
46085;DHT22;31823;47.032;8.310;2023-07-16T09:50:10;20.00;99.90
46085;DHT22;31823;47.032;8.310;2023-07-16T09:52:35;20.00;99.90
46085;DHT22;31823;47.032;8.310;2023-07-16T09:55:03;19.80;99.90
46085;DHT22;31823;47.032;8.310;2023-07-16T09:57:35;19.80;99.90
46085;DHT22;31823;47.032;8.310;2023-07-16T10:00:04;19.70;99.90
46085;DHT22;31823;47.032;8.310;2023-07-16T10:02:34;19.70;99.90
46085;DHT22;31823;47.032;8.310;2023-07-16T10:05:11;19.70;99.90
46085;DHT22;31823;47.032;8.310;2023-07-16T10:07:37;19.70;99.90
46085;DHT22;31823;47.032;8.310;2023-07-16T10:10:11;19.60;99.90
46085;DHT22;31823;47.032;8.310;2023-07-16T10:12:37;19.90;99.90
46085;DHT22;31823;47.032;8.310;2023-07-16T10:15:04;20.20;99.90
46085;DHT22;31823;47.032;8.310;2023-07-16T10:17:32;20.10;99.90
46085;DHT22;31823;47.032;8.310;2023-07-16T10:20:08;20.40;99.90
46085;DHT22;31823;47.032;8.310;2023-07-16T10:27:36;20.40;99.90
46085;DHT22;31823;47.032;8.310;2023-07-16T10:30:03;20.50;99.90
46085;DHT22;31823;47.032;8.310;2023-07-16T10:32:31;21.00;99.90
46085;DHT22;31823;47.032;8.310;2023-07-16T10:34:57;20.90;99.90
46085;DHT22;31823;47.032;8.310;2023-07-16T10:37:23;21.10;99.90
46085;DHT22;31823;47.032;8.310;2023-07-16T10:39:52;21.00;99.90
46085;DHT22;31823;47.032;8.310;2023-07-16T10:42:19;21.20;99.90
46085;DHT22;31823;47.032;8.310;2023-07-16T10:44:48;21.10;99.90
46085;DHT22;31823;47.032;8.310;2023-07-16T10:47:22;21.30;99.90
46085;DHT22;31823;47.032;8.310;2023-07-16T10:49:48;21.30;99.90
46085;DHT22;31823;47.032;8.310;2023-07-16T10:52:13;21.40;99.90
46085;DHT22;31823;47.032;8.310;2023-07-16T10:54:40;21.70;99.90
46085;DHT22;31823;47.032;8.310;2023-07-16T10:57:06;21.60;99.90
46085;DHT22;31823;47.032;8.310;2023-07-16T10:59:32;21.90;99.90
46085;DHT22;31823;47.032;8.310;2023-07-16T11:01:58;21.80;99.90
46085;DHT22;31823;47.032;8.310;2023-07-16T11:04:23;21.60;99.90
46085;DHT22;31823;47.032;8.310;2023-07-16T11:06:52;21.40;99.90
46085;DHT22;31823;47.032;8.310;2023-07-16T11:09:18;21.40;99.90
46085;DHT22;31823;47.032;8.310;2023-07-16T11:11:43;21.40;99.90
46085;DHT22;31823;47.032;8.310;2023-07-16T11:14:09;21.60;99.90
46085;DHT22;31823;47.032;8.310;2023-07-16T11:16:38;21.60;99.90
46085;DHT22;31823;47.032;8.310;2023-07-16T11:19:07;21.90;99.90
46085;DHT22;31823;47.032;8.310;2023-07-16T11:21:36;21.60;99.90
46085;DHT22;31823;47.032;8.310;2023-07-16T11:24:12;21.30;99.90
46085;DHT22;31823;47.032;8.310;2023-07-16T11:26:38;21.50;99.90
46085;DHT22;31823;47.032;8.310;2023-07-16T11:29:14;21.90;99.90
46085;DHT22;31823;47.032;8.310;2023-07-16T11:31:40;22.00;99.90
46085;DHT22;31823;47.032;8.310;2023-07-16T11:34:13;21.90;99.90
46085;DHT22;31823;47.032;8.310;2023-07-16T11:36:38;21.60;99.90
46085;DHT22;31823;47.032;8.310;2023-07-16T11:39:04;21.70;99.90
46085;DHT22;31823;47.032;8.310;2023-07-16T11:41:30;21.80;99.90
46085;DHT22;31823;47.032;8.310;2023-07-16T11:44:00;21.90;99.90
46085;DHT22;31823;47.032;8.310;2023-07-16T11:46:31;21.60;99.90
46085;DHT22;31823;47.032;8.310;2023-07-16T11:48:58;21.60;99.90
46085;DHT22;31823;47.032;8.310;2023-07-16T11:51:24;21.70;99.90
46085;DHT22;31823;47.032;8.310;2023-07-16T11:53:49;21.80;99.90
46085;DHT22;31823;47.032;8.310;2023-07-16T11:56:15;22.10;99.90
46085;DHT22;31823;47.032;8.310;2023-07-16T11:58:40;22.00;99.90
46085;DHT22;31823;47.032;8.310;2023-07-16T12:01:06;21.70;99.90
46085;DHT22;31823;47.032;8.310;2023-07-16T12:03:32;21.90;99.90
46085;DHT22;31823;47.032;8.310;2023-07-16T12:05:57;22.20;99.90
46085;DHT22;31823;47.032;8.310;2023-07-16T12:08:23;22.70;99.90
46085;DHT22;31823;47.032;8.310;2023-07-16T12:10:48;23.30;99.90
46085;DHT22;31823;47.032;8.310;2023-07-16T12:13:14;23.00;99.90
46085;DHT22;31823;47.032;8.310;2023-07-16T12:15:39;22.20;99.90
46085;DHT22;31823;47.032;8.310;2023-07-16T12:18:05;22.50;99.90
46085;DHT22;31823;47.032;8.310;2023-07-16T12:20:31;22.70;99.90
46085;DHT22;31823;47.032;8.310;2023-07-16T12:22:56;22.70;99.90
46085;DHT22;31823;47.032;8.310;2023-07-16T12:25:22;22.60;99.90
46085;DHT22;31823;47.032;8.310;2023-07-16T12:27:47;22.60;99.90
46085;DHT22;31823;47.032;8.310;2023-07-16T12:30:13;22.70;99.90
46085;DHT22;31823;47.032;8.310;2023-07-16T12:32:39;22.70;99.90
46085;DHT22;31823;47.032;8.310;2023-07-16T12:35:05;23.20;99.90
46085;DHT22;31823;47.032;8.310;2023-07-16T12:37:30;23.20;99.90
46085;DHT22;31823;47.032;8.310;2023-07-16T12:39:56;23.10;99.90
46085;DHT22;31823;47.032;8.310;2023-07-16T12:42:21;22.90;99.90
46085;DHT22;31823;47.032;8.310;2023-07-16T12:44:47;22.60;99.90
46085;DHT22;31823;47.032;8.310;2023-07-16T12:47:14;22.60;99.90
46085;DHT22;31823;47.032;8.310;2023-07-16T12:49:40;22.90;99.90
46085;DHT22;31823;47.032;8.310;2023-07-16T12:52:06;23.50;99.90
46085;DHT22;31823;47.032;8.310;2023-07-16T12:54:32;23.30;99.90
46085;DHT22;31823;47.032;8.310;2023-07-16T12:56:58;23.00;99.90
46085;DHT22;31823;47.032;8.310;2023-07-16T12:59:23;22.90;99.90
46085;DHT22;31823;47.032;8.310;2023-07-16T13:01:50;23.00;99.90
46085;DHT22;31823;47.032;8.310;2023-07-16T13:04:16;23.00;99.90
46085;DHT22;31823;47.032;8.310;2023-07-16T13:06:42;22.90;99.90
46085;DHT22;31823;47.032;8.310;2023-07-16T13:09:07;23.20;99.90
46085;DHT22;31823;47.032;8.310;2023-07-16T13:11:33;23.60;99.90
46085;DHT22;31823;47.032;8.310;2023-07-16T13:13:58;23.80;99.90
46085;DHT22;31823;47.032;8.310;2023-07-16T13:16:24;24.00;99.90
46085;DHT22;31823;47.032;8.310;2023-07-16T13:18:50;24.40;99.90
46085;DHT22;31823;47.032;8.310;2023-07-16T13:21:15;24.80;99.90
46085;DHT22;31823;47.032;8.310;2023-07-16T13:23:41;24.40;99.90
46085;DHT22;31823;47.032;8.310;2023-07-16T13:26:06;23.60;99.90
46085;DHT22;31823;47.032;8.310;2023-07-16T13:28:32;23.90;99.90
46085;DHT22;31823;47.032;8.310;2023-07-16T13:30:57;24.40;99.90
46085;DHT22;31823;47.032;8.310;2023-07-16T13:33:23;24.30;99.90
46085;DHT22;31823;47.032;8.310;2023-07-16T13:35:48;24.60;99.90
46085;DHT22;31823;47.032;8.310;2023-07-16T13:38:14;25.00;99.90
46085;DHT22;31823;47.032;8.310;2023-07-16T13:40:40;25.30;99.90
46085;DHT22;31823;47.032;8.310;2023-07-16T13:43:05;25.00;99.90
46085;DHT22;31823;47.032;8.310;2023-07-16T13:45:31;24.80;99.90
46085;DHT22;31823;47.032;8.310;2023-07-16T13:47:58;24.70;99.90
46085;DHT22;31823;47.032;8.310;2023-07-16T13:50:24;24.20;99.90
46085;DHT22;31823;47.032;8.310;2023-07-16T13:52:49;24.30;99.90
46085;DHT22;31823;47.032;8.310;2023-07-16T13:55:15;24.00;99.90
46085;DHT22;31823;47.032;8.310;2023-07-16T13:57:40;24.00;99.90
46085;DHT22;31823;47.032;8.310;2023-07-16T14:00:08;23.70;99.90
46085;DHT22;31823;47.032;8.310;2023-07-16T14:02:35;23.20;99.90
46085;DHT22;31823;47.032;8.310;2023-07-16T14:05:01;23.00;99.90
46085;DHT22;31823;47.032;8.310;2023-07-16T14:07:26;23.20;99.90
46085;DHT22;31823;47.032;8.310;2023-07-16T14:09:53;23.90;99.90
46085;DHT22;31823;47.032;8.310;2023-07-16T14:12:19;24.50;99.90
46085;DHT22;31823;47.032;8.310;2023-07-16T14:14:45;24.90;99.90
46085;DHT22;31823;47.032;8.310;2023-07-16T14:17:12;25.00;99.90
46085;DHT22;31823;47.032;8.310;2023-07-16T14:19:38;25.00;99.90
46085;DHT22;31823;47.032;8.310;2023-07-16T14:22:03;25.50;99.90
46085;DHT22;31823;47.032;8.310;2023-07-16T14:24:29;25.10;99.90
46085;DHT22;31823;47.032;8.310;2023-07-16T14:26:58;25.30;99.90
46085;DHT22;31823;47.032;8.310;2023-07-16T14:29:25;25.60;99.90
46085;DHT22;31823;47.032;8.310;2023-07-16T14:31:52;25.80;99.90
46085;DHT22;31823;47.032;8.310;2023-07-16T14:34:18;24.90;99.90
46085;DHT22;31823;47.032;8.310;2023-07-16T14:36:45;25.00;99.90
46085;DHT22;31823;47.032;8.310;2023-07-16T14:39:10;25.30;99.90
46085;DHT22;31823;47.032;8.310;2023-07-16T14:41:36;26.10;99.90
46085;DHT22;31823;47.032;8.310;2023-07-16T14:44:04;25.90;99.90
46085;DHT22;31823;47.032;8.310;2023-07-16T14:46:29;26.10;99.90
46085;DHT22;31823;47.032;8.310;2023-07-16T14:48:55;25.20;99.90
46085;DHT22;31823;47.032;8.310;2023-07-16T14:51:22;25.10;99.90
46085;DHT22;31823;47.032;8.310;2023-07-16T14:53:49;24.90;99.90
46085;DHT22;31823;47.032;8.310;2023-07-16T14:56:15;24.50;99.90
46085;DHT22;31823;47.032;8.310;2023-07-16T14:58:41;24.20;99.90
46085;DHT22;31823;47.032;8.310;2023-07-16T15:01:06;24.10;99.90
46085;DHT22;31823;47.032;8.310;2023-07-16T15:03:37;24.20;99.90
46085;DHT22;31823;47.032;8.310;2023-07-16T15:06:03;23.70;99.90
46085;DHT22;31823;47.032;8.310;2023-07-16T15:08:29;23.10;99.90
46085;DHT22;31823;47.032;8.310;2023-07-16T15:10:57;23.20;99.90
46085;DHT22;31823;47.032;8.310;2023-07-16T15:13:22;22.70;99.90
46085;DHT22;31823;47.032;8.310;2023-07-16T15:15:51;23.00;99.90
46085;DHT22;31823;47.032;8.310;2023-07-16T15:18:18;23.10;99.90
46085;DHT22;31823;47.032;8.310;2023-07-16T15:20:45;23.10;99.90
46085;DHT22;31823;47.032;8.310;2023-07-16T15:23:11;22.60;99.90
46085;DHT22;31823;47.032;8.310;2023-07-16T15:25:37;22.80;99.90
46085;DHT22;31823;47.032;8.310;2023-07-16T15:28:02;23.00;99.90
46085;DHT22;31823;47.032;8.310;2023-07-16T15:30:28;23.10;99.90
46085;DHT22;31823;47.032;8.310;2023-07-16T15:32:54;23.30;99.90